logo tempoitalia

Diretta Meteo Twin Falls Joslin Fld-Magic Valley, Stati Uniti (USA)domenica 30 agosto ore 23:53

Mappa
Sereno 14 °C Sereno 24 Ore: T.min 10 T.max 23
Ponente Sud/Sud-Ovest Km/h 20.3 Punto di rugiada: -6 °C Umidità: 24% Visibilità: 10 Km
Il sole sorge alle: 07:01 Il sole tramonta alle: 20:15
30 Agosto 2026 23:53 tempo osservato: Sereno Sereno 14 24 1018 vento: Nord S/SO 20.3
30 Agosto 2026 22:53 tempo osservato: Sereno Sereno 16 21 1019 vento: Nord SO 14.8
30 Agosto 2026 21:53 tempo osservato: Sereno Sereno 16 24 1018 vento: Nord O/SO 18.5
30 Agosto 2026 20:53 tempo osservato: Sereno Sereno 13 32 1018 vento: Nord O/SO 7.4
30 Agosto 2026 19:53 tempo osservato: Sereno Sereno 21 19 1017 vento: Nord N 5.5
30 Agosto 2026 18:53 tempo osservato: Sereno Sereno 22 19 1018 vento: Nord O/NO 7.4
30 Agosto 2026 17:53 tempo osservato: Sereno Sereno 23 18 1018 vento: Nord N/NO 14.8
30 Agosto 2026 16:53 tempo osservato: Sereno Sereno 22 21 1018 vento: Nord N 5.5
30 Agosto 2026 15:53 tempo osservato: Sereno Sereno 22 21 1019 vento: Nord O/NO 18.5
30 Agosto 2026 14:53 tempo osservato: Sereno Sereno 22 21 1019 vento: Nord O/NO 14.8
30 Agosto 2026 13:53 tempo osservato: Sereno Sereno 20 26 1020 vento: Nord O/NO 20.3
30 Agosto 2026 12:53 tempo osservato: Sereno Sereno 19 32 1020 vento: Nord O/NO 18.5
30 Agosto 2026 11:53 tempo osservato: Sereno Sereno 17 33 1020 vento: Nord O/NO 22.2
30 Agosto 2026 10:53 tempo osservato: Sereno Sereno 16 31 1021 vento: Nord O 25.9
30 Agosto 2026 09:53 tempo osservato: Sereno Sereno 15 33 1020 vento: Nord O 33.3
30 Agosto 2026 08:53 tempo osservato: Sereno Sereno 13 35 1020 vento: Nord O/SO 31.5
30 Agosto 2026 07:53 tempo osservato: Sereno Sereno 11 43 1020 vento: Nord SO 25.9
30 Agosto 2026 06:53 tempo osservato: Sereno Sereno 10 46 1019 vento: Nord S/SO 16.7
30 Agosto 2026 05:53 tempo osservato: Sereno Sereno 12 40 1018 vento: Nord SO 22.2
30 Agosto 2026 04:53 tempo osservato: Sereno Sereno 13 37 1017 vento: Nord O/SO 29.6
30 Agosto 2026 03:53 tempo osservato: Sereno Sereno 14 35 1017 vento: Nord SO 25.9
30 Agosto 2026 02:53 tempo osservato: Sereno Sereno 14 41 1016 vento: Nord O/SO 29.6
30 Agosto 2026 01:53 tempo osservato: Sereno Sereno 15 44 1015 vento: Nord SO 22.2
30 Agosto 2026 00:53 tempo osservato: Sereno Sereno 16 55 1015 vento: Nord SO 22.2